createdAt,value
2018-06-25T00:13:35.885Z,22.80
2018-06-25T00:18:48.175Z,22.80
2018-06-25T00:38:00.339Z,22.80
2018-06-25T00:40:28.172Z,22.80
2018-06-25T00:42:57.878Z,22.80
2018-06-25T00:45:25.527Z,22.80
2018-06-25T00:47:53.184Z,22.80
2018-06-25T00:50:20.763Z,22.80
2018-06-25T01:12:10.028Z,22.80
2018-06-25T01:14:37.677Z,22.80
2018-06-25T01:19:32.697Z,22.80
2018-06-25T01:22:00.429Z,22.80
2018-06-25T01:24:28.048Z,22.80
2018-06-25T01:26:55.612Z,22.80
2018-06-25T01:29:23.264Z,22.80
2018-06-25T01:36:45.684Z,22.80
2018-06-25T01:39:13.217Z,22.80
2018-06-25T01:41:40.899Z,22.80
2018-06-25T01:44:08.475Z,22.80
2018-06-25T01:46:36.243Z,22.80
2018-06-25T02:05:46.384Z,22.80
2018-06-25T02:08:13.927Z,22.80
2018-06-25T02:10:41.505Z,22.80
2018-06-25T02:13:09.133Z,22.80
2018-06-25T02:22:58.766Z,22.80
2018-06-25T02:25:26.433Z,22.80
2018-06-25T02:27:54.163Z,22.80
2018-06-25T02:30:21.765Z,22.80
2018-06-25T02:32:49.296Z,22.80
2018-06-25T02:35:16.960Z,22.80
2018-06-25T02:37:44.664Z,22.80
2018-06-25T02:40:12.225Z,22.80
2018-06-25T02:47:34.400Z,22.80
2018-06-25T02:50:01.989Z,22.80
2018-06-25T02:52:29.537Z,22.80
2018-06-25T02:54:57.058Z,22.80
2018-06-25T02:57:24.701Z,22.80
2018-06-25T03:16:32.839Z,22.80
2018-06-25T03:19:00.630Z,22.80
2018-06-25T03:21:28.209Z,22.80
2018-06-25T03:23:55.890Z,22.80
2018-06-25T03:43:13.303Z,22.80
2018-06-25T03:45:41.073Z,22.80
2018-06-25T03:48:08.677Z,22.80
2018-06-25T03:50:36.309Z,22.80
2018-06-25T03:53:03.966Z,22.80
2018-06-25T03:55:31.758Z,22.80
2018-06-25T04:17:12.812Z,22.80
2018-06-25T04:19:40.421Z,22.80
2018-06-25T04:22:08.138Z,22.80
2018-06-25T04:24:35.934Z,22.80
2018-06-25T04:29:31.140Z,22.80
2018-06-25T04:51:18.843Z,22.80
2018-06-25T04:53:46.545Z,22.80
2018-06-25T05:12:59.444Z,22.80
2018-06-25T05:15:26.916Z,22.80
2018-06-25T05:17:54.384Z,22.70
2018-06-25T05:20:21.956Z,22.80
2018-06-25T05:22:49.528Z,22.70
2018-06-25T05:25:17.081Z,22.70
2018-06-25T05:27:44.725Z,22.70
2018-06-25T05:30:12.299Z,22.80
2018-06-25T05:32:39.845Z,22.70
2018-06-25T05:35:07.404Z,22.70
2018-06-25T05:37:34.977Z,22.70
2018-06-25T05:40:02.556Z,22.70
2018-06-25T05:45:08.649Z,22.70
2018-06-25T05:47:36.204Z,22.80
2018-06-25T05:50:03.793Z,22.80
2018-06-25T05:52:31.345Z,22.80
2018-06-25T05:54:59.002Z,22.80
2018-06-25T05:57:26.646Z,22.80
2018-06-25T05:59:54.217Z,22.80
2018-06-25T06:02:21.767Z,22.80
2018-06-25T06:04:49.434Z,22.80
2018-06-25T06:07:16.994Z,22.80
2018-06-25T06:09:44.763Z,22.80
2018-06-25T06:12:12.326Z,22.90
2018-06-25T06:14:39.926Z,22.90
2018-06-25T06:19:34.787Z,22.90
2018-06-25T06:22:02.569Z,22.80
2018-06-25T06:24:30.771Z,22.80
2018-06-25T06:26:58.357Z,22.90
2018-06-25T06:29:25.932Z,22.80
2018-06-25T06:31:53.493Z,22.90
2018-06-25T06:34:21.229Z,22.90
2018-06-25T06:36:48.807Z,22.80
2018-06-25T06:39:16.578Z,22.90
2018-06-25T06:41:45.524Z,22.90
2018-06-25T06:44:13.152Z,22.90
2018-06-25T06:46:40.731Z,22.90
2018-06-25T06:49:08.785Z,22.90
2018-06-25T06:51:36.352Z,22.90
2018-06-25T06:54:04.069Z,22.90
2018-06-25T06:56:31.771Z,22.90
2018-06-25T06:58:59.339Z,22.90
2018-06-25T07:01:26.909Z,22.90
2018-06-25T07:06:22.157Z,22.90
2018-06-25T07:08:50.044Z,22.90
2018-06-25T07:11:18.000Z,22.90
2018-06-25T07:13:45.500Z,22.90
2018-06-25T07:16:13.086Z,22.90
2018-06-25T07:18:40.790Z,22.90
2018-06-25T07:21:08.301Z,22.90
2018-06-25T07:23:35.981Z,22.90
2018-06-25T07:26:03.559Z,23.00
2018-06-25T07:28:31.114Z,22.90
2018-06-25T07:30:59.024Z,22.90
2018-06-25T07:35:53.954Z,22.90
2018-06-25T07:38:21.563Z,22.90
2018-06-25T07:40:49.119Z,22.90
2018-06-25T07:43:16.682Z,22.90
2018-06-25T07:45:44.252Z,22.90
2018-06-25T07:48:12.301Z,22.90
2018-06-25T07:50:40.091Z,22.90
2018-06-25T07:53:07.673Z,22.90
2018-06-25T07:55:35.368Z,22.90
2018-06-25T07:58:02.876Z,23.00
2018-06-25T08:02:57.653Z,22.90
2018-06-25T08:05:25.345Z,22.90
2018-06-25T08:10:37.101Z,22.90
2018-06-25T08:13:04.662Z,22.90
2018-06-25T08:15:32.245Z,22.90
2018-06-25T08:17:59.818Z,22.90
2018-06-25T08:20:27.412Z,22.90
2018-06-25T08:22:54.946Z,22.90
2018-06-25T08:25:22.538Z,22.90
2018-06-25T08:27:50.097Z,22.90
2018-06-25T08:30:17.577Z,22.90
2018-06-25T08:32:45.058Z,22.90
2018-06-25T08:40:07.277Z,22.90
2018-06-25T08:42:34.881Z,22.90
2018-06-25T08:47:29.800Z,22.90
2018-06-25T08:52:24.620Z,23.00
2018-06-25T08:54:52.242Z,23.00
2018-06-25T08:57:19.833Z,23.00
2018-06-25T08:59:47.407Z,23.00
2018-06-25T09:02:15.104Z,23.10
2018-06-25T09:04:42.724Z,23.00
2018-06-25T09:07:10.364Z,23.10
2018-06-25T09:09:37.937Z,23.10
2018-06-25T09:12:05.697Z,23.10
2018-06-25T09:14:33.261Z,23.10
2018-06-25T09:17:00.927Z,23.10
2018-06-25T09:19:28.486Z,23.10
2018-06-25T09:21:55.960Z,23.20
2018-06-25T09:24:23.514Z,23.20
2018-06-25T09:26:51.151Z,23.20
2018-06-25T09:29:18.779Z,23.20
2018-06-25T09:34:19.003Z,23.20
2018-06-25T09:36:46.564Z,23.20
2018-06-25T09:39:14.298Z,23.30
2018-06-25T09:41:41.701Z,23.20
2018-06-25T09:44:10.122Z,23.20
2018-06-25T09:46:37.611Z,23.30
2018-06-25T09:49:05.105Z,23.20
2018-06-25T09:51:32.752Z,23.30
2018-06-25T09:54:00.272Z,23.20
2018-06-25T09:56:27.849Z,23.20
2018-06-25T09:58:55.425Z,23.20
2018-06-25T10:01:23.080Z,23.20
2018-06-25T10:03:50.670Z,23.20
2018-06-25T10:06:18.313Z,23.20
2018-06-25T10:13:40.572Z,23.20
2018-06-25T10:18:35.489Z,23.20
2018-06-25T10:21:03.005Z,23.20
2018-06-25T10:23:30.509Z,23.20
2018-06-25T10:25:57.996Z,23.20
2018-06-25T10:28:25.521Z,23.20
2018-06-25T10:30:52.988Z,23.20
2018-06-25T10:33:20.584Z,23.20
2018-06-25T10:35:48.384Z,23.20
2018-06-25T10:38:15.960Z,23.20
2018-06-25T10:40:43.562Z,23.30
2018-06-25T10:43:11.137Z,23.20
2018-06-25T10:45:38.817Z,23.30
2018-06-25T10:48:06.401Z,23.30
2018-06-25T10:50:34.120Z,23.30
2018-06-25T10:53:01.694Z,23.30
2018-06-25T10:55:29.964Z,23.30
2018-06-25T10:57:57.648Z,23.30
2018-06-25T11:00:25.294Z,23.30
2018-06-25T11:02:52.847Z,23.40
2018-06-25T11:05:20.438Z,23.40
2018-06-25T11:07:48.091Z,23.40
2018-06-25T11:10:15.707Z,23.40
2018-06-25T11:12:43.396Z,23.40
2018-06-25T11:15:10.976Z,23.40
2018-06-25T11:17:39.020Z,23.40
2018-06-25T11:20:06.868Z,23.40
2018-06-25T11:22:34.452Z,23.40
2018-06-25T11:25:01.943Z,23.40
2018-06-25T11:27:29.632Z,23.40
2018-06-25T11:29:57.094Z,23.40
2018-06-25T11:32:24.813Z,23.40
2018-06-25T11:34:52.394Z,23.40
2018-06-25T11:37:20.030Z,23.40
2018-06-25T11:39:47.744Z,23.40
2018-06-25T11:42:15.304Z,23.40
2018-06-25T11:44:43.074Z,23.40
2018-06-25T11:47:10.661Z,23.40
2018-06-25T11:57:00.024Z,23.40
2018-06-25T11:59:27.600Z,23.40
2018-06-25T12:01:55.196Z,23.40
2018-06-25T12:04:22.780Z,23.40
2018-06-25T12:06:50.743Z,23.40
2018-06-25T12:09:18.320Z,23.40
2018-06-25T12:11:54.445Z,23.40
2018-06-25T12:14:21.985Z,23.40
2018-06-25T12:16:49.531Z,23.40
2018-06-25T12:24:11.896Z,23.40
2018-06-25T12:31:33.937Z,23.40
2018-06-25T12:34:01.537Z,23.30
2018-06-25T12:36:29.212Z,23.40
2018-06-25T12:38:56.842Z,23.40
2018-06-25T12:41:24.431Z,23.40
2018-06-25T12:43:52.137Z,23.40
2018-06-25T12:46:19.682Z,23.40
2018-06-25T12:48:47.255Z,23.40
2018-06-25T12:51:14.831Z,23.40
2018-06-25T12:53:42.548Z,23.50
2018-06-25T12:56:10.072Z,23.50
2018-06-25T12:58:37.551Z,23.50
2018-06-25T13:01:05.084Z,23.40
2018-06-25T13:03:32.864Z,23.50
2018-06-25T13:06:00.562Z,23.50
2018-06-25T13:08:28.196Z,23.50
2018-06-25T13:10:56.086Z,23.50
2018-06-25T13:32:37.549Z,23.60
2018-06-25T13:51:53.955Z,23.50
2018-06-25T13:54:21.697Z,23.50
2018-06-25T13:56:49.497Z,23.50
2018-06-25T14:16:03.432Z,23.40
2018-06-25T14:43:22.140Z,23.40
2018-06-25T14:45:50.266Z,23.40
2018-06-25T14:48:18.492Z,23.40
2018-06-25T15:07:34.685Z,23.30
2018-06-25T15:10:02.323Z,23.30
2018-06-25T15:12:29.932Z,23.30
2018-06-25T15:14:57.524Z,23.30
2018-06-25T15:34:13.086Z,23.30
2018-06-25T15:36:40.805Z,23.30
2018-06-25T15:55:49.509Z,23.30
2018-06-25T16:47:48.245Z,23.30
2018-06-25T17:34:20.373Z,23.30
2018-06-25T17:53:30.191Z,23.20
2018-06-25T18:17:44.856Z,23.20
2018-06-25T18:20:12.482Z,23.20
2018-06-25T18:25:43.118Z,23.20
2018-06-25T18:44:53.647Z,23.20
2018-06-25T18:47:21.287Z,23.20
2018-06-25T18:49:49.029Z,23.20
2018-06-25T18:52:16.614Z,23.20
2018-06-25T18:54:44.200Z,23.30
2018-06-25T19:13:54.562Z,23.20
2018-06-25T19:16:22.110Z,23.20
2018-06-25T19:18:49.716Z,23.20
2018-06-25T19:23:44.617Z,23.20
2018-06-25T19:28:39.490Z,23.20
2018-06-25T19:39:24.734Z,23.20
2018-06-25T19:41:52.224Z,23.10
2018-06-25T19:44:20.394Z,23.20
2018-06-25T19:46:48.156Z,23.20
2018-06-25T20:06:01.168Z,23.20
2018-06-25T20:08:28.700Z,23.30
2018-06-25T20:27:43.491Z,23.20
2018-06-25T20:46:54.217Z,23.30
2018-06-25T20:49:21.847Z,23.20
2018-06-25T20:51:49.509Z,23.20
2018-06-25T20:54:17.121Z,23.20
2018-06-25T20:56:44.916Z,23.20
2018-06-25T20:59:12.561Z,23.20
2018-06-25T21:01:40.279Z,23.20
2018-06-25T21:23:25.564Z,23.20
2018-06-25T21:25:53.287Z,23.20
2018-06-25T21:30:52.672Z,23.20
2018-06-25T21:52:34.920Z,23.20
2018-06-25T21:55:02.540Z,23.20
2018-06-25T21:57:30.361Z,23.20
2018-06-25T21:59:58.076Z,23.20
2018-06-25T22:04:53.184Z,23.20
2018-06-25T22:07:20.768Z,23.20
2018-06-25T22:09:48.368Z,23.20
2018-06-25T22:31:30.147Z,23.20
2018-06-25T22:33:57.724Z,23.20
2018-06-25T22:36:25.414Z,23.20
2018-06-25T22:38:53.100Z,23.20
2018-06-25T22:58:06.322Z,23.20
2018-06-25T23:36:26.025Z,23.20
2018-06-25T23:38:53.606Z,23.20
2018-06-25T23:41:21.529Z,23.20
2018-06-25T23:43:49.143Z,23.20
2018-06-25T23:46:17.384Z,23.20
2018-06-25T23:51:12.277Z,23.20
2018-06-25T23:53:40.075Z,23.20
2018-06-25T23:56:07.920Z,23.20
